Time;durP1;ratioP1;P1;durP2;ratioP2;P2;SDS_P1;SDS_P2;PMS_P1;PMS_P2;Temp;Humidity;BMP_temperature;BMP_pressure;BME280_temperature;BME280_humidity;BME280_pressure;Samples;Min_cycle;Max_cycle;Signal;HPM_P1;HPM_P2
2022/02/24 00:01:57;;;;;;;0.90;0.90;;;;;;;4.64;60.02;101120.80;103547;1274;138592;-66
2022/02/24 00:04:26;;;;;;;0.90;0.90;;;;;;;4.64;60.22;101127.65;103653;1274;94297;-67
2022/02/24 00:06:54;;;;;;;1.00;1.00;;;;;;;4.71;60.27;101131.06;104123;1274;108174;-67
2022/02/24 00:09:21;;;;;;;0.90;0.90;;;;;;;4.72;60.02;101124.39;103609;1274;138056;-68
2022/02/24 00:11:49;;;;;;;1.00;1.00;;;;;;;4.73;60.09;101123.69;103680;1274;109305;-67
2022/02/24 00:14:17;;;;;;;0.80;0.80;;;;;;;4.77;60.18;101119.85;104228;1274;138683;-68
2022/02/24 00:16:45;;;;;;;0.90;0.90;;;;;;;4.79;60.25;101118.81;103836;1274;94794;-67
2022/02/24 00:19:19;;;;;;;1.00;1.00;;;;;;;4.79;60.08;101119.88;103621;1274;137813;-67
2022/02/24 00:21:46;;;;;;;0.90;0.90;;;;;;;4.71;60.26;101116.30;103751;1274;99828;-66
2022/02/24 00:24:14;;;;;;;0.90;0.90;;;;;;;4.61;60.58;101111.79;103565;1274;174719;-68
2022/02/24 00:26:42;;;;;;;0.90;0.90;;;;;;;4.59;60.55;101115.66;103585;1272;138148;-68
2022/02/24 00:29:10;;;;;;;1.30;1.30;;;;;;;4.54;60.56;101120.16;103768;1274;94578;-67
2022/02/24 00:31:38;;;;;;;1.00;1.00;;;;;;;4.51;60.78;101121.90;103618;1274;138124;-68
2022/02/24 00:34:05;;;;;;;1.00;1.00;;;;;;;4.48;60.92;101121.70;103783;1274;100068;-68
2022/02/24 00:36:33;;;;;;;0.90;0.90;;;;;;;4.56;60.92;101118.61;103716;1274;108777;-66
2022/02/24 00:39:02;;;;;;;1.00;1.00;;;;;;;4.54;60.77;101122.64;103661;1274;138417;-67
2022/02/24 00:41:30;;;;;;;1.00;1.00;;;;;;;4.56;60.67;101118.43;103548;1275;94531;-67
2022/02/24 00:43:58;;;;;;;1.00;1.00;;;;;;;4.49;60.48;101121.70;103628;1274;137994;-68
2022/02/24 00:46:26;;;;;;;1.00;1.00;;;;;;;4.46;60.77;101121.66;103731;1274;99370;-67
2022/02/24 00:48:54;;;;;;;1.00;1.00;;;;;;;4.42;60.88;101121.10;103743;1274;108943;-66
2022/02/24 00:51:22;;;;;;;1.00;1.00;;;;;;;4.35;60.93;101122.78;103640;1274;138035;-68
2022/02/24 00:53:50;;;;;;;1.00;1.00;;;;;;;4.25;61.32;101125.84;103743;1274;94677;-67
2022/02/24 00:56:18;;;;;;;1.00;1.00;;;;;;;4.19;61.18;101129.64;103619;1274;138398;-68
2022/02/24 00:58:46;;;;;;;1.00;1.00;;;;;;;4.15;61.57;101127.31;103723;1274;99388;-67
2022/02/24 01:01:15;;;;;;;1.00;1.00;;;;;;;4.16;61.56;101126.44;103633;1274;138217;-66
2022/02/24 01:03:44;;;;;;;1.00;1.00;;;;;;;4.14;61.43;101122.72;103754;1274;95591;-67
2022/02/24 01:06:12;;;;;;;1.10;1.10;;;;;;;4.09;61.70;101124.95;103826;1274;94343;-69
2022/02/24 01:08:40;;;;;;;1.10;1.10;;;;;;;4.07;61.78;101127.73;103678;1274;137779;-64
2022/02/24 01:11:08;;;;;;;1.00;1.00;;;;;;;4.07;61.73;101124.92;103759;1274;100328;-67
2022/02/24 01:13:36;;;;;;;1.00;1.00;;;;;;;4.11;61.58;101122.00;103648;1274;138797;-67
2022/02/24 01:16:04;;;;;;;1.00;1.00;;;;;;;4.08;61.51;101123.02;103655;1274;94321;-67
2022/02/24 01:18:33;;;;;;;1.10;1.10;;;;;;;4.03;61.75;101129.27;103810;1274;95566;-65
2022/02/24 01:21:01;;;;;;;1.00;1.00;;;;;;;4.01;61.77;101131.70;103649;1273;137284;-67
2022/02/24 01:23:29;;;;;;;0.90;0.90;;;;;;;4.03;62.03;101129.98;103707;1274;99820;-68
2022/02/24 01:25:56;;;;;;;1.00;1.00;;;;;;;4.03;61.71;101127.86;103645;1274;138087;-67
2022/02/24 01:28:24;;;;;;;0.90;0.90;;;;;;;4.08;61.68;101123.89;103694;1274;94629;-70
2022/02/24 01:30:52;;;;;;;1.00;1.00;;;;;;;4.09;61.46;101127.23;103762;1274;94622;-69
2022/02/24 01:33:20;;;;;;;1.20;1.20;;;;;;;4.06;61.47;101130.52;103635;1274;138074;-68
2022/02/24 01:35:48;;;;;;;1.10;1.10;;;;;;;4.08;61.47;101135.48;103814;1272;99305;-68
2022/02/24 01:38:16;;;;;;;1.10;1.10;;;;;;;4.04;61.55;101138.59;103499;1275;138035;-67
2022/02/24 01:40:44;;;;;;;1.10;1.10;;;;;;;4.01;61.71;101136.98;103752;1274;94392;-67
2022/02/24 01:43:12;;;;;;;1.00;1.00;;;;;;;3.99;61.90;101136.07;103639;1274;138529;-67
2022/02/24 01:45:40;;;;;;;1.10;1.10;;;;;;;4.02;61.53;101132.95;103778;1274;108637;-68
2022/02/24 01:48:07;;;;;;;1.00;1.00;;;;;;;3.95;61.67;101132.69;103736;1274;99256;-68
2022/02/24 01:50:38;;;;;;;1.00;1.00;;;;;;;3.89;61.73;101132.42;103650;1274;137867;-68
2022/02/24 01:53:06;;;;;;;1.10;1.10;;;;;;;3.90;62.00;101136.83;103697;1274;95462;-68
2022/02/24 01:55:34;;;;;;;1.10;1.10;;;;;;;3.93;61.93;101135.65;103776;1274;138156;-68
2022/02/24 01:58:03;;;;;;;1.10;1.10;;;;;;;3.92;62.05;101132.30;103764;1274;108378;-67
2022/02/24 02:00:31;;;;;;;1.00;1.00;;;;;;;3.89;61.76;101126.46;103817;1274;99734;-66
2022/02/24 02:02:59;;;;;;;1.10;1.10;;;;;;;3.81;61.95;101124.96;103621;1274;143220;-67
2022/02/24 02:05:29;;;;;;;1.10;1.10;;;;;;;3.78;62.09;101126.48;103741;1274;94864;-67
2022/02/24 02:07:57;;;;;;;1.10;1.10;;;;;;;3.74;61.86;101125.91;103690;1274;137731;-68
2022/02/24 02:10:26;;;;;;;1.10;1.10;;;;;;;3.71;62.07;101129.55;103772;1273;107978;-68
2022/02/24 02:12:54;;;;;;;1.10;1.10;;;;;;;3.73;61.73;101130.83;103755;1274;99664;-67
2022/02/24 02:15:24;;;;;;;1.10;1.10;;;;;;;3.69;62.01;101132.34;103610;1273;138157;-67
2022/02/24 02:17:52;;;;;;;1.10;1.10;;;;;;;3.66;61.84;101128.45;103741;1274;94662;-67
2022/02/24 02:20:20;;;;;;;1.20;1.20;;;;;;;3.54;62.11;101124.59;104175;1274;137859;-61
2022/02/24 02:22:50;;;;;;;1.00;1.00;;;;;;;3.51;62.27;101120.50;104397;1274;108523;-62
2022/02/24 02:25:20;;;;;;;1.00;1.00;;;;;;;3.46;62.26;101119.38;104052;1274;138270;-66
2022/02/24 02:27:51;;;;;;;1.20;1.20;;;;;;;3.33;62.19;101119.19;103917;1274;108769;-68
2022/02/24 02:30:20;;;;;;;1.20;1.20;;;;;;;3.14;62.37;101116.44;103712;1274;94331;-66
2022/02/24 02:32:48;;;;;;;1.40;1.40;;;;;;;3.03;63.09;101114.34;103650;1274;138471;-67
2022/02/24 02:35:16;;;;;;;1.10;1.10;;;;;;;3.03;63.19;101116.10;103775;1274;108394;-67
2022/02/24 02:37:44;;;;;;;1.10;1.10;;;;;;;2.99;62.99;101117.80;103666;1274;138689;-68
2022/02/24 02:40:12;;;;;;;1.20;1.20;;;;;;;2.88;63.08;101114.63;103677;1274;109004;-67
2022/02/24 02:42:42;;;;;;;1.30;1.30;;;;;;;2.78;63.56;101114.63;104003;1273;94619;-68
2022/02/24 02:45:11;;;;;;;1.30;1.30;;;;;;;2.72;63.47;101111.89;103858;1274;139317;-67
2022/02/24 02:47:39;;;;;;;1.30;1.30;;;;;;;2.66;63.70;101113.90;103697;1274;107306;-68
2022/02/24 02:50:07;;;;;;;1.20;1.20;;;;;;;2.69;63.93;101110.27;103579;1274;138523;-67
2022/02/24 02:52:43;;;;;;;1.10;1.10;;;;;;;2.77;63.83;101111.45;103691;1274;108883;-67
2022/02/24 02:55:12;;;;;;;1.10;1.10;;;;;;;2.86;63.72;101111.96;103679;1274;138799;-66
2022/02/24 02:57:40;;;;;;;1.10;1.10;;;;;;;2.92;63.36;101112.23;103716;1274;94706;-67
2022/02/24 03:00:10;;;;;;;1.30;1.30;;;;;;;2.88;63.12;101109.19;103678;1274;108546;-67
2022/02/24 03:02:38;;;;;;;1.30;1.30;;;;;;;2.78;63.24;101107.98;103645;1274;139207;-67
2022/02/24 03:05:09;;;;;;;1.20;1.20;;;;;;;2.63;63.41;101104.91;103849;1274;108848;-66
2022/02/24 03:07:36;;;;;;;1.20;1.20;;;;;;;2.55;64.19;101103.34;103588;1274;138653;-68
2022/02/24 03:10:06;;;;;;;1.40;1.40;;;;;;;2.59;64.46;101103.77;103791;1274;94308;-65
2022/02/24 03:12:35;;;;;;;1.20;1.20;;;;;;;2.63;63.95;101104.39;103797;1275;107468;-66
2022/02/24 03:15:06;;;;;;;1.30;1.30;;;;;;;2.62;64.43;101102.96;103863;1274;138547;-69
2022/02/24 03:17:35;;;;;;;1.30;1.30;;;;;;;2.69;64.33;101105.54;103729;1274;108837;-65
2022/02/24 03:20:03;;;;;;;1.20;1.20;;;;;;;2.83;64.37;101104.37;103585;1274;138131;-68
2022/02/24 03:22:31;;;;;;;1.20;1.20;;;;;;;2.86;63.77;101104.59;104290;1274;94380;-66
2022/02/24 03:24:58;;;;;;;1.40;1.40;;;;;;;2.75;63.74;101097.73;103773;1274;108385;-68
2022/02/24 03:27:26;;;;;;;1.40;1.40;;;;;;;2.67;64.19;101094.11;104209;1274;138214;-67
2022/02/24 03:29:54;;;;;;;1.30;1.30;;;;;;;2.62;64.28;101090.86;103715;1274;108979;-67
2022/02/24 03:32:22;;;;;;;1.20;1.20;;;;;;;2.60;64.30;101089.77;103621;1274;139203;-66
2022/02/24 03:34:50;;;;;;;1.20;1.20;;;;;;;2.63;64.26;101088.08;103845;1274;96738;-67
2022/02/24 03:37:19;;;;;;;1.30;1.30;;;;;;;2.66;64.12;101090.24;103609;1274;137890;-67
2022/02/24 03:39:48;;;;;;;1.40;1.40;;;;;;;2.58;64.28;101086.41;103781;1274;99519;-68
2022/02/24 03:42:16;;;;;;;1.30;1.30;;;;;;;2.54;64.53;101087.73;103747;1274;108806;-67
2022/02/24 03:44:45;;;;;;;1.30;1.30;;;;;;;2.44;64.63;101088.79;103681;1274;138559;-68
2022/02/24 03:47:13;;;;;;;1.20;1.20;;;;;;;2.41;65.04;101092.25;104010;1274;94281;-67
2022/02/24 03:49:45;;;;;;;1.30;1.30;;;;;;;2.49;64.74;101093.95;103647;1274;138920;-68
2022/02/24 03:52:13;;;;;;;1.20;1.20;;;;;;;2.56;64.82;101091.45;103739;1274;98763;-67
2022/02/24 03:54:42;;;;;;;1.30;1.30;;;;;;;2.59;64.29;101092.38;103715;1274;108750;-67
2022/02/24 03:57:10;;;;;;;1.30;1.30;;;;;;;2.55;64.49;101096.53;103751;1274;137874;-69
2022/02/24 03:59:39;;;;;;;1.40;1.40;;;;;;;2.51;64.59;101096.45;103751;1274;94636;-69
2022/02/24 04:02:07;;;;;;;1.30;1.30;;;;;;;2.51;64.84;101096.98;104264;1274;138968;-68
2022/02/24 04:04:36;;;;;;;1.20;1.20;;;;;;;2.56;64.62;101091.80;103868;1274;99244;-67
2022/02/24 04:07:05;;;;;;;1.30;1.30;;;;;;;2.52;64.37;101094.02;103692;1274;108996;-67
2022/02/24 04:09:33;;;;;;;1.30;1.30;;;;;;;2.48;64.38;101091.69;103983;1274;137884;-67
2022/02/24 04:12:02;;;;;;;1.20;1.20;;;;;;;2.42;64.74;101090.52;103721;1274;94661;-68
2022/02/24 04:14:30;;;;;;;1.30;1.30;;;;;;;2.30;64.74;101090.98;103684;1273;138705;-68
2022/02/24 04:16:59;;;;;;;1.30;1.30;;;;;;;2.28;65.30;101093.75;103802;1274;99803;-67
2022/02/24 04:19:27;;;;;;;1.30;1.30;;;;;;;2.32;65.35;101091.90;103672;1274;139072;-67
2022/02/24 04:21:55;;;;;;;1.30;1.30;;;;;;;2.29;65.01;101089.21;103751;1274;94308;-68
2022/02/24 04:24:23;;;;;;;1.40;1.40;;;;;;;2.34;65.12;101088.80;103809;1274;94709;-65
2022/02/24 04:26:51;;;;;;;1.30;1.30;;;;;;;2.40;64.93;101090.13;103668;1274;137862;-67
2022/02/24 04:29:19;;;;;;;1.30;1.30;;;;;;;2.39;64.87;101089.77;104324;1273;99582;-68
2022/02/24 04:31:47;;;;;;;1.40;1.40;;;;;;;2.26;65.03;101092.33;103719;1274;138208;-68
2022/02/24 04:34:15;;;;;;;1.40;1.40;;;;;;;2.16;65.61;101088.46;103791;1274;96126;-68
2022/02/24 04:36:43;;;;;;;1.40;1.40;;;;;;;2.25;65.77;101089.31;103772;1274;94558;-67
2022/02/24 04:39:12;;;;;;;1.30;1.30;;;;;;;2.36;64.84;101091.27;103910;1274;138410;-68
2022/02/24 04:41:40;;;;;;;1.40;1.40;;;;;;;2.30;64.95;101085.40;103779;1274;99661;-67
2022/02/24 04:44:08;;;;;;;1.30;1.30;;;;;;;2.17;65.06;101087.60;103680;1274;138389;-68
2022/02/24 04:46:36;;;;;;;1.30;1.30;;;;;;;2.08;65.40;101082.51;103814;1274;94485;-68
2022/02/24 04:49:04;;;;;;;1.30;1.30;;;;;;;2.06;65.62;101081.24;103866;1274;94372;-67
2022/02/24 04:51:33;;;;;;;1.30;1.30;;;;;;;2.03;65.82;101074.54;103746;1274;139486;-67
2022/02/24 04:54:01;;;;;;;1.30;1.30;;;;;;;2.07;66.15;101081.10;103870;1273;100151;-67
2022/02/24 04:56:29;;;;;;;1.30;1.30;;;;;;;2.03;65.94;101086.63;103692;1274;137945;-68
2022/02/24 04:58:57;;;;;;;1.40;1.40;;;;;;;1.89;66.36;101084.07;103808;1274;94311;-67
2022/02/24 05:01:25;;;;;;;1.50;1.50;;;;;;;1.79;66.63;101080.36;103636;1274;138518;-68
2022/02/24 05:03:53;;;;;;;1.50;1.50;;;;;;;1.79;67.32;101080.70;103713;1274;108554;-66
2022/02/24 05:06:21;;;;;;;1.30;1.30;;;;;;;1.84;67.46;101083.79;103826;1274;97900;-66
2022/02/24 05:08:49;;;;;;;1.30;1.30;;;;;;;2.02;66.41;101079.77;103669;1274;138250;-68
2022/02/24 05:11:17;;;;;;;1.30;1.30;;;;;;;2.14;66.19;101081.05;103828;1274;94793;-66
2022/02/24 05:13:44;;;;;;;1.30;1.30;;;;;;;2.12;65.78;101082.23;103742;1274;138238;-67
2022/02/24 05:16:12;;;;;;;1.40;1.40;;;;;;;2.05;66.25;101076.32;103796;1274;108539;-68
2022/02/24 05:18:40;;;;;;;1.50;1.50;;;;;;;1.99;66.40;101078.64;103751;1274;98614;-68
2022/02/24 05:21:08;;;;;;;1.50;1.50;;;;;;;2.00;66.85;101078.52;103692;1274;138800;-67
2022/02/24 05:23:37;;;;;;;1.40;1.40;;;;;;;2.13;66.13;101075.77;103763;1274;94756;-68
2022/02/24 05:26:05;;;;;;;1.30;1.30;;;;;;;2.28;66.08;101072.55;103881;1274;138287;-68
2022/02/24 05:28:33;;;;;;;1.30;1.30;;;;;;;2.35;65.33;101077.58;103724;1274;108378;-67
2022/02/24 05:31:01;;;;;;;1.40;1.40;;;;;;;2.41;65.04;101077.17;104056;1274;99513;-68
2022/02/24 05:33:30;;;;;;;1.40;1.40;;;;;;;2.45;64.58;101077.59;103645;1274;137800;-68
2022/02/24 05:35:58;;;;;;;1.40;1.40;;;;;;;2.39;64.63;101074.15;103707;1276;94743;-67
2022/02/24 05:38:26;;;;;;;1.30;1.30;;;;;;;2.23;64.96;101082.98;103584;1277;138869;-67
2022/02/24 05:40:55;;;;;;;1.30;1.30;;;;;;;2.17;65.40;101085.67;103714;1274;106188;-68
2022/02/24 05:43:26;;;;;;;1.20;1.20;;;;;;;2.18;65.93;101086.39;104205;1275;138407;-66
2022/02/24 05:45:58;;;;;;;1.30;1.30;;;;;;;2.21;64.98;101082.77;103743;1276;108911;-66
2022/02/24 05:48:26;;;;;;;1.40;1.40;;;;;;;2.10;65.59;101084.83;103678;1274;95499;-67
2022/02/24 05:50:54;;;;;;;1.40;1.40;;;;;;;2.00;65.81;101083.23;103545;1274;138858;-65
2022/02/24 05:53:22;;;;;;;1.60;1.60;;;;;;;1.92;66.06;101086.59;103920;1274;110221;-66
2022/02/24 05:55:49;;;;;;;1.30;1.30;;;;;;;1.82;66.29;101080.97;103690;1274;139115;-68
2022/02/24 05:58:19;;;;;;;1.30;1.30;;;;;;;1.72;66.86;101078.29;103667;1274;107445;-66
2022/02/24 06:00:48;;;;;;;1.30;1.30;;;;;;;1.68;67.43;101081.71;103735;1274;95242;-68
2022/02/24 06:03:17;;;;;;;1.20;1.20;;;;;;;1.69;67.72;101077.02;103662;1274;138483;-67
2022/02/24 06:05:46;;;;;;;1.30;1.30;;;;;;;1.67;67.74;101079.24;103915;1274;108678;-66
2022/02/24 06:08:13;;;;;;;1.40;1.40;;;;;;;1.69;67.94;101083.14;103755;1273;137903;-65
2022/02/24 06:10:41;;;;;;;1.30;1.30;;;;;;;1.76;68.00;101083.98;103808;1274;109193;-66
2022/02/24 06:13:09;;;;;;;1.50;1.50;;;;;;;1.80;67.90;101086.86;103850;1274;95572;-66
2022/02/24 06:15:37;;;;;;;1.60;1.60;;;;;;;1.90;67.98;101093.21;103655;1274;138286;-68
2022/02/24 06:18:07;;;;;;;1.30;1.30;;;;;;;2.01;68.03;101092.02;103745;1274;109710;-66
2022/02/24 06:20:35;;;;;;;1.30;1.30;;;;;;;1.98;67.66;101095.10;103901;1274;138428;-68
2022/02/24 06:23:04;;;;;;;1.40;1.40;;;;;;;1.93;68.02;101090.63;103890;1274;108744;-66
2022/02/24 06:25:31;;;;;;;1.40;1.40;;;;;;;1.92;67.99;101096.91;103701;1274;138843;-70
2022/02/24 06:27:59;;;;;;;1.40;1.40;;;;;;;1.92;68.12;101097.27;104460;1274;95217;-67
2022/02/24 06:30:27;;;;;;;1.30;1.30;;;;;;;1.96;68.72;101094.89;103781;1274;110500;-67
2022/02/24 06:32:56;;;;;;;1.30;1.30;;;;;;;2.00;68.56;101094.80;103918;1274;140158;-65
2022/02/24 06:35:24;;;;;;;1.40;1.40;;;;;;;2.06;68.81;101091.08;103849;1274;109152;-68
2022/02/24 06:37:52;;;;;;;1.30;1.30;;;;;;;2.17;68.54;101093.38;103632;1274;137928;-68
2022/02/24 06:40:19;;;;;;;1.30;1.30;;;;;;;2.32;68.46;101101.73;103619;1275;95364;-66
2022/02/24 06:42:48;;;;;;;1.30;1.30;;;;;;;2.44;68.28;101093.70;103745;1274;110265;-67
2022/02/24 06:45:15;;;;;;;1.30;1.30;;;;;;;2.57;68.38;101091.13;103666;1274;139524;-70
2022/02/24 06:47:43;;;;;;;1.20;1.20;;;;;;;2.66;68.02;101089.02;103741;1274;109157;-67
2022/02/24 06:50:11;;;;;;;1.20;1.20;;;;;;;2.75;68.02;101089.69;103917;1274;141590;-68
2022/02/24 06:52:39;;;;;;;1.20;1.20;;;;;;;2.82;67.83;101095.23;103686;1274;96612;-68
2022/02/24 06:55:08;;;;;;;1.20;1.20;;;;;;;2.90;67.72;101091.67;103737;1274;109752;-67
2022/02/24 06:57:43;;;;;;;1.20;1.20;;;;;;;2.98;67.79;101087.95;103691;1274;137289;-67
2022/02/24 07:00:13;;;;;;;1.30;1.30;;;;;;;2.99;67.83;101088.15;103671;1274;109908;-67
2022/02/24 07:02:42;;;;;;;1.20;1.20;;;;;;;3.06;67.95;101082.98;104866;1274;140549;-66
2022/02/24 07:05:11;;;;;;;1.10;1.10;;;;;;;3.11;67.86;101082.73;104095;1274;96916;-66
2022/02/24 07:07:39;;;;;;;1.10;1.10;;;;;;;3.20;67.78;101080.73;103627;1274;140768;-66
2022/02/24 07:10:10;;;;;;;1.10;1.10;;;;;;;3.29;67.51;101081.58;103979;1274;99316;-66
2022/02/24 07:12:42;;;;;;;1.20;1.20;;;;;;;3.38;67.33;101076.60;104146;1274;108945;-68
2022/02/24 07:15:12;;;;;;;1.10;1.10;;;;;;;3.43;67.06;101076.52;103699;1274;140398;-68
2022/02/24 07:17:44;;;;;;;1.00;1.00;;;;;;;3.54;67.08;101073.84;103857;1274;95233;-67
2022/02/24 07:20:15;;;;;;;1.10;1.10;;;;;;;3.68;67.01;101071.39;103650;1274;138091;-67
2022/02/24 07:22:43;;;;;;;1.10;1.10;;;;;;;3.79;66.52;101068.02;103885;1274;102591;-67
2022/02/24 07:25:12;;;;;;;1.00;1.00;;;;;;;3.86;66.27;101066.35;103775;1274;108819;-68
2022/02/24 07:27:42;;;;;;;1.00;1.00;;;;;;;3.92;66.18;101064.32;103740;1274;138571;-68
2022/02/24 07:30:11;;;;;;;1.00;1.00;;;;;;;4.02;65.85;101062.48;103839;1274;95135;-67
2022/02/24 07:32:40;;;;;;;1.00;1.00;;;;;;;4.08;65.60;101062.05;103684;1274;139388;-66
2022/02/24 07:35:08;;;;;;;1.00;1.00;;;;;;;4.11;65.62;101059.95;103789;1274;99334;-67
2022/02/24 07:37:36;;;;;;;1.10;1.10;;;;;;;4.14;65.59;101056.46;103682;1274;139687;-68
2022/02/24 07:40:05;;;;;;;0.90;0.90;;;;;;;4.19;65.41;101062.50;103821;1273;95658;-67
2022/02/24 07:42:34;;;;;;;0.90;0.90;;;;;;;4.24;65.42;101058.67;103825;1274;95655;-68
2022/02/24 07:45:04;;;;;;;1.00;1.00;;;;;;;4.37;65.51;101058.11;103720;1274;137772;-68
2022/02/24 07:47:32;;;;;;;1.10;1.10;;;;;;;4.65;64.68;101058.02;103873;1274;99992;-66
2022/02/24 07:49:59;;;;;;;0.90;0.90;;;;;;;4.77;64.19;101060.93;103688;1274;140284;-67
2022/02/24 07:52:27;;;;;;;0.90;0.90;;;;;;;4.84;63.85;101056.06;103809;1273;95659;-68
2022/02/24 07:54:55;;;;;;;1.00;1.00;;;;;;;4.91;63.74;101056.28;103798;1274;95220;-67
2022/02/24 07:57:23;;;;;;;0.90;0.90;;;;;;;4.94;63.23;101053.31;103661;1274;138698;-67
2022/02/24 07:59:51;;;;;;;0.90;0.90;;;;;;;4.95;63.13;101049.64;103782;1274;99370;-67
2022/02/24 08:02:18;;;;;;;0.90;0.90;;;;;;;5.06;63.31;101041.08;103651;1274;141543;-66
2022/02/24 08:04:46;;;;;;;0.80;0.80;;;;;;;5.24;63.07;101037.49;103772;1274;95020;-65
2022/02/24 08:07:15;;;;;;;0.80;0.80;;;;;;;5.32;62.47;101039.48;103785;1274;95159;-67
2022/02/24 08:09:43;;;;;;;0.80;0.80;;;;;;;5.44;62.44;101042.54;103719;1274;139275;-67
2022/02/24 08:14:57;;;;;;;0.90;0.90;;;;;;;5.60;61.90;101030.98;103639;1274;139122;-66
2022/02/24 08:17:25;;;;;;;0.80;0.80;;;;;;;5.71;61.38;101030.69;103842;1274;97045;-66
2022/02/24 08:19:53;;;;;;;0.70;0.70;;;;;;;5.73;60.62;101031.74;103701;1274;138150;-68
2022/02/24 08:22:23;;;;;;;0.80;0.80;;;;;;;5.76;61.21;101028.05;103723;1274;110313;-67
2022/02/24 08:24:51;;;;;;;0.80;0.80;;;;;;;5.85;60.65;101025.63;103773;1274;98460;-67
2022/02/24 08:27:20;;;;;;;0.80;0.80;;;;;;;5.88;60.56;101025.98;103656;1273;140459;-67
2022/02/24 08:29:47;;;;;;;0.80;0.80;;;;;;;5.91;60.23;101017.17;103801;1274;95618;-67
2022/02/24 08:32:16;;;;;;;0.80;0.80;;;;;;;5.98;60.06;101011.93;103618;1274;140689;-66
2022/02/24 08:34:44;;;;;;;0.80;0.80;;;;;;;6.10;59.90;101008.43;103792;1274;109660;-67
2022/02/24 08:37:12;;;;;;;0.80;0.80;;;;;;;6.23;59.69;101005.45;103780;1274;98423;-68
2022/02/24 08:39:40;;;;;;;0.80;0.80;;;;;;;6.32;59.26;101002.48;103677;1274;137872;-67
2022/02/24 08:42:08;;;;;;;0.80;0.80;;;;;;;6.44;59.51;100995.42;103775;1274;96014;-67
2022/02/24 08:44:36;;;;;;;0.80;0.80;;;;;;;6.55;58.64;100992.43;103735;1274;137820;-65
2022/02/24 08:47:04;;;;;;;0.80;0.80;;;;;;;6.58;58.31;100991.73;104088;1274;109677;-66
2022/02/24 08:49:32;;;;;;;0.80;0.80;;;;;;;6.56;58.16;100984.67;103744;1274;140159;-66
2022/02/24 08:52:00;;;;;;;0.80;0.80;;;;;;;6.60;57.82;100981.31;103777;1272;108825;-66
2022/02/24 08:54:31;;;;;;;0.80;0.80;;;;;;;6.66;58.25;100981.13;103767;1274;95531;-67
2022/02/24 08:57:02;;;;;;;0.80;0.80;;;;;;;6.77;57.98;100984.29;103755;1274;138843;-66
2022/02/24 08:59:31;;;;;;;0.70;0.70;;;;;;;6.86;57.35;100982.17;103889;1274;109793;-65
2022/02/24 09:01:59;;;;;;;0.70;0.70;;;;;;;6.94;56.80;100983.56;103728;1274;138474;-67
2022/02/24 09:04:27;;;;;;;0.70;0.70;;;;;;;7.04;56.75;100980.54;103731;1274;109337;-67
2022/02/24 09:06:55;;;;;;;0.70;0.70;;;;;;;7.16;56.20;100974.68;103824;1274;95943;-67
2022/02/24 09:09:25;;;;;;;0.70;0.70;;;;;;;7.23;55.93;100971.13;103650;1274;137743;-67
2022/02/24 09:11:53;;;;;;;0.80;0.80;;;;;;;7.31;56.16;100967.39;103844;1274;109868;-67
2022/02/24 09:14:21;;;;;;;0.70;0.70;;;;;;;7.49;56.06;100958.32;103656;1274;138044;-67
2022/02/24 09:16:49;;;;;;;0.70;0.70;;;;;;;7.69;55.40;100946.36;103761;1274;108817;-65
2022/02/24 09:19:17;;;;;;;0.60;0.60;;;;;;;7.90;54.13;100942.35;103717;1274;95568;-67
2022/02/24 09:21:45;;;;;;;0.60;0.60;;;;;;;8.04;53.72;100940.83;103634;1273;138288;-67
2022/02/24 09:24:13;;;;;;;0.60;0.60;;;;;;;8.09;53.17;100933.73;103780;1274;109690;-67
2022/02/24 09:26:42;;;;;;;0.60;0.60;;;;;;;8.13;52.66;100926.27;103680;1274;139684;-67
2022/02/24 09:29:11;;;;;;;0.60;0.60;;;;;;;8.30;54.01;100916.59;103735;1274;109501;-68
2022/02/24 09:31:39;;;;;;;0.60;0.60;;;;;;;8.53;53.13;100910.04;103755;1274;139691;-66
2022/02/24 09:34:07;;;;;;;0.80;0.80;;;;;;;8.73;51.77;100908.95;103774;1274;95868;-65
2022/02/24 09:36:35;;;;;;;0.70;0.70;;;;;;;9.63;49.30;100904.98;103832;1274;109622;-66
2022/02/24 09:39:03;;;;;;;0.60;0.60;;;;;;;11.38;46.35;100895.66;103660;1274;139468;-67
2022/02/24 09:41:31;;;;;;;0.50;0.50;;;;;;;12.89;43.83;100888.27;103736;1274;108477;-67
2022/02/24 09:43:59;;;;;;;0.40;0.40;;;;;;;14.42;39.50;100888.02;103678;1274;138490;-66
2022/02/24 09:46:27;;;;;;;0.40;0.40;;;;;;;15.43;37.00;100874.01;104339;1274;95701;-67
2022/02/24 09:49:03;;;;;;;0.40;0.30;;;;;;;16.79;34.33;100866.77;104208;1274;109783;-67
2022/02/24 09:51:31;;;;;;;0.40;0.20;;;;;;;18.13;31.47;100868.58;103855;1274;139888;-68
2022/02/24 09:54:01;;;;;;;0.40;0.30;;;;;;;19.15;29.92;100859.65;103746;1274;108705;-67
2022/02/24 09:56:32;;;;;;;0.40;0.20;;;;;;;20.44;29.36;100856.30;103654;1274;139898;-68
2022/02/24 09:59:00;;;;;;;0.40;0.10;;;;;;;21.15;25.95;100848.20;103806;1274;95673;-67
2022/02/24 10:01:28;;;;;;;0.40;0.10;;;;;;;21.60;26.37;100840.81;103652;1274;138274;-66
2022/02/24 10:04:00;;;;;;;0.40;0.10;;;;;;;22.03;24.24;100839.58;103798;1274;99451;-68
2022/02/24 10:06:39;;;;;;;0.40;0.10;;;;;;;22.20;24.68;100831.41;104351;1274;108871;-68
2022/02/24 10:09:08;;;;;;;0.40;0.10;;;;;;;22.92;24.04;100832.02;103663;1274;139591;-67
2022/02/24 10:11:39;;;;;;;0.40;0.10;;;;;;;23.03;23.65;100827.10;104521;1274;95590;-67
2022/02/24 10:14:20;;;;;;;0.40;0.10;;;;;;;23.09;23.79;100817.63;103613;1274;139443;-67
2022/02/24 10:16:56;;;;;;;0.40;0.10;;;;;;;22.98;23.83;100814.25;103798;1274;99365;-67
2022/02/24 10:19:45;;;;;;;0.40;0.10;;;;;;;23.32;22.57;100813.43;103614;1274;138831;-67
2022/02/24 10:22:25;;;;;;;0.40;0.00;;;;;;;23.10;23.07;100805.74;103732;1274;95478;-66
2022/02/24 10:25:00;;;;;;;0.40;0.00;;;;;;;21.46;23.95;100804.93;103736;1274;95635;-68
2022/02/24 10:27:36;;;;;;;0.40;0.10;;;;;;;20.47;25.65;100793.70;103669;1274;138723;-67
2022/02/24 10:30:07;;;;;;;0.40;0.00;;;;;;;20.15;25.22;100793.66;104445;1274;98816;-66
2022/02/24 10:32:35;;;;;;;0.40;0.10;;;;;;;18.68;27.43;100795.81;103680;1274;140073;-67
2022/02/24 10:35:21;;;;;;;0.40;0.10;;;;;;;17.70;28.49;100790.23;103794;1274;95872;-67
2022/02/24 10:38:12;;;;;;;0.40;0.10;;;;;;;17.86;28.63;100791.40;103716;1274;138806;-67
2022/02/24 10:40:43;;;;;;;0.40;0.10;;;;;;;19.48;27.37;100778.23;103744;1274;111280;-68
2022/02/24 10:43:17;;;;;;;0.40;0.10;;;;;;;20.72;24.99;100764.38;103818;1274;99659;-67
2022/02/24 10:45:47;;;;;;;0.40;0.10;;;;;;;21.66;24.39;100764.29;103685;1274;137897;-67
2022/02/24 10:48:15;;;;;;;0.40;0.10;;;;;;;21.03;24.73;100761.45;103807;1274;96989;-66
2022/02/24 10:50:44;;;;;;;0.40;0.10;;;;;;;18.61;26.49;100763.53;103644;1274;139839;-66
2022/02/24 10:53:12;;;;;;;0.40;0.10;;;;;;;16.80;29.10;100760.90;103773;1274;109684;-66
2022/02/24 10:56:05;;;;;;;0.40;0.10;;;;;;;15.71;31.00;100757.44;103642;1274;139044;-67
2022/02/24 10:58:41;;;;;;;0.40;0.10;;;;;;;14.81;32.87;100748.50;103847;1274;108746;-68
2022/02/24 11:01:15;;;;;;;0.40;0.20;;;;;;;14.04;33.92;100744.83;103801;1274;95762;-67
2022/02/24 11:03:56;;;;;;;0.40;0.20;;;;;;;13.31;34.83;100741.91;103956;1274;138615;-67
2022/02/24 11:06:26;;;;;;;0.40;0.20;;;;;;;12.72;35.72;100733.92;103767;1274;109648;-66
2022/02/24 11:08:57;;;;;;;0.40;0.30;;;;;;;12.37;36.78;100725.30;104554;1274;138651;-68
2022/02/24 11:11:30;;;;;;;0.40;0.30;;;;;;;11.97;38.01;100722.83;103747;1274;108765;-68
2022/02/24 11:14:00;;;;;;;0.40;0.20;;;;;;;11.78;39.42;100716.20;103662;1274;142449;-67
2022/02/24 11:16:28;;;;;;;0.40;0.30;;;;;;;11.65;39.84;100711.91;103771;1274;96446;-66
2022/02/24 11:18:57;;;;;;;0.40;0.30;;;;;;;11.52;39.84;100709.41;103943;1274;109688;-66
2022/02/24 11:21:26;;;;;;;0.40;0.30;;;;;;;11.18;40.42;100711.48;103594;1274;138962;-66
2022/02/24 11:23:55;;;;;;;0.40;0.30;;;;;;;10.87;41.02;100706.84;103788;1274;108788;-66
2022/02/24 11:26:24;;;;;;;0.40;0.30;;;;;;;10.72;41.46;100696.73;103950;1274;139809;-66
2022/02/24 11:29:04;;;;;;;0.40;0.30;;;;;;;10.54;41.87;100691.41;103762;1274;95219;-67
2022/02/24 11:32:02;;;;;;;0.40;0.30;;;;;;;10.53;42.49;100679.55;104095;1274;140141;-65